Pearl, Mississippi
Current Conditions -  °F | °C
As of 12:54 PM on Saturday 25 Oct 2014 (Local Time) from KJAN Reporting Station
Clear Clear  
Wind Chill: 77°   Ceiling: Unl
Heat Index: 79°   Visibility: 10mi
Dew Point: 57°   Wind: 6mph
Humidity: 50%   Direction: NA
Pressure: 30.13"   Gusts: NA
Location:  32.2996°N, 90.1428°W
Report Text: KJAN 251754Z VRB05KT 10SM CLR 25/14 A3013 RMK AO2 SLP198 T02500139 10250 20072 58015
Loading
Personal Weather Stations






























Interactive Weather Map
Tropical Storm Tracking
New forecast layout! Learn more

10-Day Weather Forecast

Advertisements
Track Severe Weather on mobile